Time;durP1;ratioP1;P1;durP2;ratioP2;P2;SDS_P1;SDS_P2;PMS_P1;PMS_P2;Temp;Humidity;BMP_temperature;BMP_pressure;BME280_temperature;BME280_humidity;BME280_pressure;Samples;Min_cycle;Max_cycle;Signal;HPM_P1;HPM_P2
2023/06/24 00:02:25;;;;;;;10.15;7.70;;;;;;;;;;10281555;28;20308;-73
2023/06/24 00:07:26;;;;;;;8.32;7.30;;;;;;;;;;10271566;28;20295;-76
2023/06/24 00:12:27;;;;;;;8.90;6.70;;;;;;;;;;10288631;28;20894;-72
2023/06/24 00:17:29;;;;;;;8.88;7.55;;;;;;;;;;10289062;28;20227;-74
2023/06/24 00:22:30;;;;;;;12.18;6.13;;;;;;;;;;10289974;28;20800;-74
2023/06/24 00:27:30;;;;;;;6.82;6.22;;;;;;;;;;10286588;28;20216;-74
2023/06/24 00:32:31;;;;;;;9.25;5.55;;;;;;;;;;10287327;28;20260;-73
2023/06/24 00:37:32;;;;;;;6.20;4.75;;;;;;;;;;10275915;28;20228;-72
2023/06/24 00:42:34;;;;;;;7.60;4.70;;;;;;;;;;10277388;28;20389;-74
2023/06/24 00:47:35;;;;;;;4.43;4.20;;;;;;;;;;10274518;28;20220;-73
2023/06/24 00:52:38;;;;;;;11.02;4.57;;;;;;;;;;10274712;28;20239;-75
2023/06/24 00:57:40;;;;;;;5.03;4.63;;;;;;;;;;10283949;28;20268;-72
2023/06/24 01:02:42;;;;;;;5.32;4.78;;;;;;;;;;10271808;28;20228;-75
2023/06/24 01:07:43;;;;;;;4.40;3.95;;;;;;;;;;10249876;28;20226;-73
2023/06/24 01:12:44;;;;;;;6.57;4.97;;;;;;;;;;10250390;28;20221;-73
2023/06/24 01:18:03;;;;;;;7.75;4.57;;;;;;;;;;10264937;28;20885;-76
2023/06/24 01:23:10;;;;;;;5.57;5.07;;;;;;;;;;10269872;28;20866;-75
2023/06/24 01:28:29;;;;;;;8.70;4.95;;;;;;;;;;10288670;28;20221;-75
2023/06/24 01:33:37;;;;;;;5.90;4.85;;;;;;;;;;10286067;28;20597;-75
2023/06/24 01:38:43;;;;;;;5.70;5.20;;;;;;;;;;10270205;28;20665;-75
2023/06/24 01:43:44;;;;;;;5.88;5.32;;;;;;;;;;10280370;28;20213;-75
2023/06/24 01:48:46;;;;;;;6.05;4.70;;;;;;;;;;10287063;28;20220;-73
2023/06/24 01:53:50;;;;;;;6.47;5.50;;;;;;;;;;10269800;28;20300;-75
2023/06/24 01:58:54;;;;;;;6.30;5.45;;;;;;;;;;10273823;28;20586;-73
2023/06/24 02:03:56;;;;;;;5.38;4.88;;;;;;;;;;10288189;28;20626;-75
2023/06/24 02:08:58;;;;;;;10.65;6.25;;;;;;;;;;10264993;28;20220;-75
2023/06/24 02:14:01;;;;;;;7.35;5.00;;;;;;;;;;10294189;28;20217;-78
2023/06/24 02:19:03;;;;;;;7.60;5.32;;;;;;;;;;10290679;28;20218;-75
2023/06/24 02:24:05;;;;;;;9.25;5.15;;;;;;;;;;10288684;28;20224;-77
2023/06/24 02:29:11;;;;;;;5.93;4.80;;;;;;;;;;10275627;28;20213;-74
2023/06/24 02:34:12;;;;;;;6.32;5.13;;;;;;;;;;10274067;28;20545;-76
2023/06/24 02:39:13;;;;;;;5.78;5.00;;;;;;;;;;10282588;28;20306;-74
2023/06/24 02:44:14;;;;;;;15.90;6.53;;;;;;;;;;10271236;28;20231;-75
2023/06/24 02:49:17;;;;;;;5.53;5.00;;;;;;;;;;10281092;28;20232;-73
2023/06/24 02:54:18;;;;;;;10.43;6.03;;;;;;;;;;10275394;28;20303;-74
2023/06/24 02:59:51;;;;;;;9.32;6.18;;;;;;;;;;10293767;28;20212;-75
2023/06/24 03:04:53;;;;;;;9.75;5.55;;;;;;;;;;10292343;28;20692;-76
2023/06/24 03:09:54;;;;;;;10.13;5.32;;;;;;;;;;10272048;28;20228;-75
2023/06/24 03:14:55;;;;;;;7.75;5.72;;;;;;;;;;10288432;28;20859;-74
2023/06/24 03:19:56;;;;;;;7.55;5.05;;;;;;;;;;10277065;28;20225;-74
2023/06/24 03:24:57;;;;;;;5.43;4.88;;;;;;;;;;10259487;28;20299;-74
2023/06/24 03:29:58;;;;;;;8.55;5.78;;;;;;;;;;10287109;28;20213;-73
2023/06/24 03:35:00;;;;;;;7.35;5.03;;;;;;;;;;10286719;28;20220;-74
2023/06/24 03:40:01;;;;;;;7.78;5.65;;;;;;;;;;10250441;28;20283;-75
2023/06/24 03:45:05;;;;;;;8.65;6.32;;;;;;;;;;10266450;28;20274;-73
2023/06/24 03:50:07;;;;;;;6.55;5.60;;;;;;;;;;10274325;28;20279;-75
2023/06/24 03:55:08;;;;;;;6.03;5.13;;;;;;;;;;10291320;28;20198;-73
2023/06/24 04:00:15;;;;;;;8.50;6.05;;;;;;;;;;10280705;28;20278;-76
2023/06/24 04:05:17;;;;;;;7.25;5.40;;;;;;;;;;10270120;28;20209;-75
2023/06/24 04:10:18;;;;;;;8.32;5.90;;;;;;;;;;10281154;28;20334;-73
2023/06/24 04:15:19;;;;;;;6.72;5.43;;;;;;;;;;10279491;28;20204;-74
2023/06/24 04:20:22;;;;;;;11.18;6.00;;;;;;;;;;10274876;28;20241;-74
2023/06/24 04:25:23;;;;;;;14.25;6.28;;;;;;;;;;10273758;28;20217;-74
2023/06/24 04:30:25;;;;;;;8.13;6.60;;;;;;;;;;10279055;28;20302;-75
2023/06/24 04:35:26;;;;;;;7.45;6.07;;;;;;;;;;10277254;28;20253;-77
2023/06/24 04:40:27;;;;;;;10.38;6.18;;;;;;;;;;10243407;28;20280;-76
2023/06/24 04:45:28;;;;;;;9.20;5.97;;;;;;;;;;10264602;28;20279;-74
2023/06/24 04:50:29;;;;;;;7.78;5.53;;;;;;;;;;10242593;28;20335;-78
2023/06/24 04:55:30;;;;;;;12.57;6.47;;;;;;;;;;10274301;28;20212;-74
2023/06/24 05:00:31;;;;;;;12.80;6.68;;;;;;;;;;10257118;28;20303;-75
2023/06/24 05:05:32;;;;;;;10.82;7.03;;;;;;;;;;10290877;28;20336;-74
2023/06/24 05:10:33;;;;;;;9.40;6.25;;;;;;;;;;10277808;28;20224;-77
2023/06/24 05:15:34;;;;;;;11.00;6.65;;;;;;;;;;10281209;28;20228;-76
2023/06/24 05:20:35;;;;;;;8.73;6.07;;;;;;;;;;10270210;28;21605;-74
2023/06/24 05:25:37;;;;;;;7.78;6.15;;;;;;;;;;10266929;28;20263;-75
2023/06/24 05:30:38;;;;;;;7.90;6.38;;;;;;;;;;10262549;28;20225;-75
2023/06/24 05:35:41;;;;;;;10.98;6.80;;;;;;;;;;10276633;28;20224;-73
2023/06/24 05:40:42;;;;;;;11.23;6.25;;;;;;;;;;10283716;28;20212;-76
2023/06/24 05:45:43;;;;;;;8.85;6.60;;;;;;;;;;10278867;28;20681;-74
2023/06/24 05:50:44;;;;;;;16.67;6.40;;;;;;;;;;10266731;28;20226;-75
2023/06/24 05:55:45;;;;;;;9.27;7.40;;;;;;;;;;10265185;28;20936;-73
2023/06/24 06:00:46;;;;;;;9.68;7.68;;;;;;;;;;10280951;28;20220;-77
2023/06/24 06:05:47;;;;;;;10.23;6.97;;;;;;;;;;10281437;28;20851;-74
2023/06/24 06:10:48;;;;;;;14.35;7.63;;;;;;;;;;10271678;28;20220;-74
2023/06/24 06:15:49;;;;;;;9.20;7.30;;;;;;;;;;10270154;28;20217;-74
2023/06/24 06:20:50;;;;;;;10.85;7.60;;;;;;;;;;10263069;28;20213;-75
2023/06/24 06:25:51;;;;;;;9.93;7.57;;;;;;;;;;10270746;28;20252;-76
2023/06/24 06:30:52;;;;;;;11.90;7.70;;;;;;;;;;10280047;28;20912;-73
2023/06/24 06:35:53;;;;;;;11.88;7.90;;;;;;;;;;10266323;28;20849;-73
2023/06/24 06:40:54;;;;;;;12.68;8.32;;;;;;;;;;10252463;28;20817;-74
2023/06/24 06:45:56;;;;;;;15.70;7.28;;;;;;;;;;10277274;28;20217;-75
2023/06/24 06:50:57;;;;;;;7.53;6.50;;;;;;;;;;10265664;28;20228;-73
2023/06/24 06:55:58;;;;;;;8.32;6.05;;;;;;;;;;10274398;28;20314;-76
2023/06/24 07:01:01;;;;;;;7.88;6.28;;;;;;;;;;10270111;28;20223;-74
2023/06/24 07:06:02;;;;;;;6.88;5.22;;;;;;;;;;10266226;28;20216;-78
2023/06/24 07:11:03;;;;;;;5.13;4.70;;;;;;;;;;10279685;28;20952;-76
2023/06/24 07:16:04;;;;;;;6.82;6.20;;;;;;;;;;10272892;28;20721;-73
2023/06/24 07:21:05;;;;;;;5.13;4.82;;;;;;;;;;10276581;28;20222;-75
2023/06/24 07:26:06;;;;;;;5.93;5.43;;;;;;;;;;10269354;28;20225;-75
2023/06/24 07:31:07;;;;;;;5.78;5.38;;;;;;;;;;10272349;28;20263;-74
2023/06/24 07:36:08;;;;;;;5.13;4.30;;;;;;;;;;10265291;28;20229;-76
2023/06/24 07:41:09;;;;;;;6.70;5.43;;;;;;;;;;10268561;28;20599;-77
2023/06/24 07:46:10;;;;;;;5.10;4.80;;;;;;;;;;10290642;28;20252;-77
2023/06/24 07:51:11;;;;;;;4.20;3.90;;;;;;;;;;10259719;28;20274;-74
2023/06/24 07:56:12;;;;;;;5.20;4.68;;;;;;;;;;10268154;28;20280;-75
2023/06/24 08:01:13;;;;;;;6.22;4.68;;;;;;;;;;10249902;28;20299;-76
2023/06/24 08:06:14;;;;;;;4.78;4.45;;;;;;;;;;10295050;28;20283;-75
2023/06/24 08:11:16;;;;;;;4.57;3.65;;;;;;;;;;10265890;28;20244;-76
2023/06/24 08:16:20;;;;;;;3.85;3.65;;;;;;;;;;10266111;28;20228;-77
2023/06/24 08:21:21;;;;;;;5.70;5.30;;;;;;;;;;10273643;28;20221;-75
2023/06/24 08:26:22;;;;;;;4.45;4.20;;;;;;;;;;10263766;28;20247;-75
2023/06/24 08:31:24;;;;;;;4.10;3.92;;;;;;;;;;10284458;28;20236;-77
2023/06/24 08:36:27;;;;;;;4.97;4.57;;;;;;;;;;10292972;28;20792;-72
2023/06/24 08:41:32;;;;;;;8.50;3.80;;;;;;;;;;10296748;28;20228;-78
2023/06/24 08:46:35;;;;;;;6.63;4.40;;;;;;;;;;10282513;28;21146;-76
2023/06/24 08:51:40;;;;;;;3.13;2.88;;;;;;;;;;10290071;28;20311;-75
2023/06/24 08:56:41;;;;;;;2.30;2.08;;;;;;;;;;10277519;28;20652;-79
2023/06/24 09:01:42;;;;;;;3.63;2.58;;;;;;;;;;10267981;28;20271;-78
2023/06/24 09:06:44;;;;;;;2.95;2.75;;;;;;;;;;10286873;28;20294;-75
2023/06/24 09:11:56;;;;;;;2.30;2.22;;;;;;;;;;10277568;28;20322;-75
2023/06/24 09:16:57;;;;;;;2.10;2.03;;;;;;;;;;10282161;28;20217;-78
2023/06/24 09:22:01;;;;;;;3.90;2.58;;;;;;;;;;10292745;28;20239;-79
2023/06/24 09:27:04;;;;;;;2.63;2.53;;;;;;;;;;10292741;28;20698;-78
2023/06/24 09:32:05;;;;;;;2.25;2.10;;;;;;;;;;10273062;28;20232;-77
2023/06/24 09:37:06;;;;;;;2.10;2.10;;;;;;;;;;10295801;28;20213;-76
2023/06/24 09:42:07;;;;;;;2.35;2.33;;;;;;;;;;10296297;28;20220;-76
2023/06/24 09:47:11;;;;;;;2.33;2.22;;;;;;;;;;10300649;28;20231;-77
2023/06/24 09:52:15;;;;;;;2.58;2.47;;;;;;;;;;10285518;28;20866;-82
2023/06/24 09:57:18;;;;;;;2.50;2.15;;;;;;;;;;10285101;28;21147;-78
2023/06/24 10:02:19;;;;;;;1.95;1.95;;;;;;;;;;10288299;28;21166;-77
2023/06/24 10:07:20;;;;;;;2.47;2.35;;;;;;;;;;10264804;28;20220;-77
2023/06/24 10:12:21;;;;;;;2.38;2.17;;;;;;;;;;10274343;28;20222;-78
2023/06/24 10:17:22;;;;;;;1.88;1.88;;;;;;;;;;10293658;28;20303;-80
2023/06/24 10:22:25;;;;;;;2.50;2.33;;;;;;;;;;10274640;28;20595;-80
2023/06/24 10:27:29;;;;;;;1.70;1.60;;;;;;;;;;10272407;28;20236;-78
2023/06/24 10:32:41;;;;;;;1.58;1.48;;;;;;;;;;10300836;28;20229;-78
2023/06/24 10:37:54;;;;;;;1.83;1.73;;;;;;;;;;10279846;28;20232;-76
2023/06/24 10:42:55;;;;;;;1.52;1.52;;;;;;;;;;10286225;28;20691;-77
2023/06/24 10:47:56;;;;;;;2.33;2.00;;;;;;;;;;10280420;28;20242;-78
2023/06/24 10:52:58;;;;;;;1.65;1.55;;;;;;;;;;10298943;28;20825;-77
2023/06/24 10:58:12;;;;;;;1.58;1.58;;;;;;;;;;10278427;28;21115;-79
2023/06/24 11:03:15;;;;;;;2.25;1.73;;;;;;;;;;10287024;28;20243;-77
2023/06/24 11:08:16;;;;;;;1.95;1.75;;;;;;;;;;10305452;28;20233;-78
2023/06/24 11:13:20;;;;;;;1.67;1.58;;;;;;;;;;10310846;28;20758;-77
2023/06/24 11:18:21;;;;;;;1.55;1.55;;;;;;;;;;10286798;28;20272;-78
2023/06/24 11:23:22;;;;;;;1.67;1.67;;;;;;;;;;10295173;28;20220;-76
2023/06/24 11:28:24;;;;;;;1.50;1.40;;;;;;;;;;10301412;28;20229;-76
2023/06/24 11:33:29;;;;;;;2.22;1.95;;;;;;;;;;10283590;28;20241;-76
2023/06/24 11:38:32;;;;;;;1.83;1.83;;;;;;;;;;10284970;28;20216;-79
2023/06/24 11:43:33;;;;;;;1.60;1.60;;;;;;;;;;10301356;28;20217;-77
2023/06/24 11:48:40;;;;;;;1.48;1.48;;;;;;;;;;10282688;28;20240;-76
2023/06/24 11:53:43;;;;;;;2.03;2.03;;;;;;;;;;10280892;28;20220;-76
2023/06/24 11:58:44;;;;;;;1.40;1.40;;;;;;;;;;10284763;28;20248;-78
2023/06/24 12:03:45;;;;;;;1.30;1.30;;;;;;;;;;10295532;28;20236;-76
2023/06/24 12:08:46;;;;;;;1.50;1.50;;;;;;;;;;10281017;28;20357;-77
2023/06/24 12:13:47;;;;;;;1.48;1.48;;;;;;;;;;10303675;28;20209;-76
2023/06/24 12:18:48;;;;;;;1.75;1.65;;;;;;;;;;10297561;28;20206;-78
2023/06/24 12:23:49;;;;;;;1.70;1.70;;;;;;;;;;10299744;28;20588;-78
2023/06/24 12:28:50;;;;;;;1.40;1.40;;;;;;;;;;10281473;28;20212;-81
2023/06/24 12:33:52;;;;;;;1.70;1.70;;;;;;;;;;10281380;28;20292;-80
2023/06/24 12:38:53;;;;;;;1.58;1.48;;;;;;;;;;10302495;28;20221;-78
2023/06/24 12:43:54;;;;;;;1.80;1.60;;;;;;;;;;10286203;28;20245;-80
2023/06/24 12:48:56;;;;;;;2.22;1.55;;;;;;;;;;10288316;28;20220;-76
2023/06/24 12:53:57;;;;;;;1.27;1.27;;;;;;;;;;10287590;28;20340;-80
2023/06/24 12:58:58;;;;;;;1.50;1.40;;;;;;;;;;10289146;28;20213;-77
2023/06/24 13:03:59;;;;;;;1.40;1.40;;;;;;;;;;10279812;28;20247;-75
2023/06/24 13:09:00;;;;;;;1.88;1.73;;;;;;;;;;10278673;28;20239;-75
2023/06/24 13:14:01;;;;;;;3.30;1.25;;;;;;;;;;10284640;28;20879;-76
2023/06/24 13:19:02;;;;;;;1.65;1.65;;;;;;;;;;10281164;28;20730;-77
2023/06/24 13:24:03;;;;;;;1.50;1.50;;;;;;;;;;10300256;28;20224;-77
2023/06/24 13:29:04;;;;;;;1.27;1.27;;;;;;;;;;10291907;28;20232;-78
2023/06/24 13:34:05;;;;;;;1.50;1.50;;;;;;;;;;10287576;28;20217;-76
2023/06/24 13:39:08;;;;;;;1.60;1.50;;;;;;;;;;10291728;28;20217;-78
2023/06/24 13:44:09;;;;;;;1.52;1.42;;;;;;;;;;10297344;28;20316;-77
2023/06/24 13:49:10;;;;;;;3.13;1.50;;;;;;;;;;10280568;28;20716;-77
2023/06/24 13:54:11;;;;;;;1.30;1.27;;;;;;;;;;10291253;28;20236;-77
2023/06/24 13:59:13;;;;;;;1.30;1.30;;;;;;;;;;10301663;28;20228;-76
2023/06/24 14:04:14;;;;;;;1.30;1.30;;;;;;;;;;10294775;28;21083;-78
2023/06/24 14:09:15;;;;;;;1.75;1.42;;;;;;;;;;10286008;28;20224;-76
2023/06/24 14:14:16;;;;;;;2.10;1.65;;;;;;;;;;10281738;28;20218;-77
2023/06/24 14:19:17;;;;;;;1.30;1.30;;;;;;;;;;10275714;28;20229;-75
2023/06/24 14:24:18;;;;;;;1.42;1.27;;;;;;;;;;10281128;28;20334;-75
2023/06/24 14:29:19;;;;;;;1.67;1.58;;;;;;;;;;10288441;28;20213;-76
2023/06/24 14:34:20;;;;;;;1.35;1.35;;;;;;;;;;10299792;28;20209;-76
2023/06/24 14:39:21;;;;;;;1.55;1.55;;;;;;;;;;10278102;28;20220;-76
2023/06/24 14:44:22;;;;;;;1.73;1.10;;;;;;;;;;10294032;28;20213;-76
2023/06/24 14:49:23;;;;;;;1.52;1.52;;;;;;;;;;10287667;28;20241;-74
2023/06/24 14:54:24;;;;;;;1.40;1.40;;;;;;;;;;10284741;28;21080;-75
2023/06/24 14:59:25;;;;;;;1.55;1.55;;;;;;;;;;10292841;28;20213;-77
2023/06/24 15:04:26;;;;;;;1.65;1.55;;;;;;;;;;10280087;28;21670;-76
2023/06/24 15:09:27;;;;;;;1.38;1.38;;;;;;;;;;10281739;28;20225;-75
2023/06/24 15:14:28;;;;;;;1.65;1.55;;;;;;;;;;10288162;28;20225;-75
2023/06/24 15:19:29;;;;;;;1.73;1.60;;;;;;;;;;10282956;28;20578;-75
2023/06/24 15:24:30;;;;;;;1.83;1.83;;;;;;;;;;10279775;28;20623;-75
2023/06/24 15:29:31;;;;;;;1.67;1.60;;;;;;;;;;10287242;28;20216;-76
2023/06/24 15:34:32;;;;;;;2.15;1.70;;;;;;;;;;10293104;28;20213;-76
2023/06/24 15:39:33;;;;;;;1.52;1.52;;;;;;;;;;10285173;28;20221;-75
2023/06/24 15:44:34;;;;;;;1.40;1.30;;;;;;;;;;10289637;28;21694;-75
2023/06/24 15:49:35;;;;;;;2.05;2.03;;;;;;;;;;10270195;28;20235;-77
2023/06/24 15:54:36;;;;;;;1.63;1.63;;;;;;;;;;10286374;28;20634;-76
2023/06/24 15:59:37;;;;;;;1.42;1.38;;;;;;;;;;10274613;28;20217;-76
2023/06/24 16:04:38;;;;;;;1.92;1.85;;;;;;;;;;10288081;28;20798;-77
2023/06/24 16:09:39;;;;;;;1.48;1.48;;;;;;;;;;10289893;28;20235;-75
2023/06/24 16:14:40;;;;;;;3.38;3.05;;;;;;;;;;10289094;28;20295;-77
2023/06/24 16:19:42;;;;;;;2.30;2.30;;;;;;;;;;10290480;28;20342;-80
2023/06/24 16:24:44;;;;;;;1.95;1.95;;;;;;;;;;10290361;28;20685;-78
2023/06/24 16:29:45;;;;;;;2.00;1.90;;;;;;;;;;10292522;28;20724;-77
2023/06/24 16:34:46;;;;;;;1.98;1.88;;;;;;;;;;10289079;28;20247;-78
2023/06/24 16:39:47;;;;;;;3.13;1.85;;;;;;;;;;10295488;28;20255;-77
2023/06/24 16:44:48;;;;;;;4.53;2.10;;;;;;;;;;10294192;28;20263;-78
2023/06/24 16:49:50;;;;;;;1.80;1.80;;;;;;;;;;10283734;28;20217;-83
2023/06/24 16:54:51;;;;;;;2.35;1.67;;;;;;;;;;10272061;28;20593;-79
2023/06/24 16:59:52;;;;;;;1.80;1.80;;;;;;;;;;10304058;28;20209;-79
2023/06/24 17:04:53;;;;;;;2.72;2.63;;;;;;;;;;10297942;28;20225;-81
2023/06/24 17:09:54;;;;;;;2.50;2.30;;;;;;;;;;10302313;28;20220;-79
2023/06/24 17:14:55;;;;;;;2.28;2.17;;;;;;;;;;10297892;28;20228;-78
2023/06/24 17:19:56;;;;;;;2.30;2.22;;;;;;;;;;10298132;28;20621;-79
2023/06/24 17:24:57;;;;;;;1.70;1.70;;;;;;;;;;10307221;28;20718;-77
2023/06/24 17:29:58;;;;;;;2.35;2.35;;;;;;;;;;10295189;28;20223;-79
2023/06/24 17:34:59;;;;;;;1.73;1.73;;;;;;;;;;10302574;28;20219;-79
2023/06/24 17:40:00;;;;;;;1.40;1.40;;;;;;;;;;10299941;28;20224;-79
2023/06/24 17:45:01;;;;;;;1.70;1.70;;;;;;;;;;10296930;28;20216;-79
2023/06/24 17:50:02;;;;;;;1.52;1.52;;;;;;;;;;10299424;28;20935;-80
2023/06/24 17:55:04;;;;;;;3.67;3.47;;;;;;;;;;10293624;28;20192;-79
2023/06/24 18:00:05;;;;;;;4.03;3.83;;;;;;;;;;10289392;28;20797;-80
2023/06/24 18:05:06;;;;;;;3.03;2.92;;;;;;;;;;10287733;28;20257;-77
2023/06/24 18:10:08;;;;;;;3.35;3.17;;;;;;;;;;10284345;28;20228;-77
2023/06/24 18:15:09;;;;;;;3.28;3.17;;;;;;;;;;10285757;28;20672;-77
2023/06/24 18:20:10;;;;;;;2.08;1.98;;;;;;;;;;10254053;28;20189;-79
2023/06/24 18:25:11;;;;;;;9.52;3.90;;;;;;;;;;10282391;28;20943;-80
2023/06/24 18:30:12;;;;;;;2.70;2.60;;;;;;;;;;10283986;28;20220;-77
2023/06/24 18:35:13;;;;;;;1.77;1.77;;;;;;;;;;10287743;28;20197;-79
2023/06/24 18:40:14;;;;;;;2.22;2.13;;;;;;;;;;10291288;28;20742;-77
2023/06/24 18:45:16;;;;;;;3.10;2.75;;;;;;;;;;10292362;28;20989;-79
2023/06/24 18:50:17;;;;;;;4.65;2.25;;;;;;;;;;10290130;28;20208;-78
2023/06/24 18:55:18;;;;;;;2.50;2.40;;;;;;;;;;10282932;28;20207;-79
2023/06/24 19:00:19;;;;;;;2.08;1.95;;;;;;;;;;10285953;28;20189;-79
2023/06/24 19:05:20;;;;;;;2.15;2.10;;;;;;;;;;10289594;28;20770;-77
2023/06/24 19:10:21;;;;;;;3.00;2.90;;;;;;;;;;10273681;28;20262;-77
2023/06/24 19:15:22;;;;;;;5.47;2.70;;;;;;;;;;10275903;28;21854;-80
2023/06/24 19:20:23;;;;;;;2.80;2.70;;;;;;;;;;10272410;28;20224;-79
2023/06/24 19:25:24;;;;;;;3.08;2.97;;;;;;;;;;10287654;28;20291;-81
2023/06/24 19:30:25;;;;;;;2.88;2.78;;;;;;;;;;10265277;28;20755;-77
2023/06/24 19:35:26;;;;;;;3.05;2.58;;;;;;;;;;10270584;28;20224;-80
2023/06/24 19:40:27;;;;;;;3.42;2.60;;;;;;;;;;10253427;28;20216;-78
2023/06/24 19:45:28;;;;;;;1.80;1.70;;;;;;;;;;10291683;28;20225;-78
2023/06/24 19:50:29;;;;;;;2.25;2.25;;;;;;;;;;10272710;28;20299;-77
2023/06/24 19:55:30;;;;;;;2.95;2.75;;;;;;;;;;10268053;28;20268;-79
2023/06/24 20:00:31;;;;;;;3.20;3.10;;;;;;;;;;10270188;28;20221;-76
2023/06/24 20:05:32;;;;;;;2.80;2.70;;;;;;;;;;10269050;28;20237;-77
2023/06/24 20:10:34;;;;;;;3.05;2.92;;;;;;;;;;10282401;28;20228;-80
2023/06/24 20:15:35;;;;;;;4.22;3.67;;;;;;;;;;10297874;28;20416;-77
2023/06/24 20:20:36;;;;;;;3.03;2.92;;;;;;;;;;10281199;28;20571;-79
2023/06/24 20:25:37;;;;;;;3.10;3.00;;;;;;;;;;10299447;28;20219;-77
2023/06/24 20:30:38;;;;;;;2.83;2.72;;;;;;;;;;10275426;28;20251;-77
2023/06/24 20:35:39;;;;;;;3.10;2.90;;;;;;;;;;10257108;28;20278;-76
2023/06/24 20:40:40;;;;;;;2.85;2.50;;;;;;;;;;10300696;28;20304;-77
2023/06/24 20:45:41;;;;;;;2.90;2.67;;;;;;;;;;10302191;28;20220;-77
2023/06/24 20:50:42;;;;;;;4.32;3.15;;;;;;;;;;10296158;28;20260;-77
2023/06/24 20:55:43;;;;;;;2.58;2.47;;;;;;;;;;10282077;28;20746;-77
2023/06/24 21:00:44;;;;;;;3.40;3.30;;;;;;;;;;10288323;28;20263;-77
2023/06/24 21:05:45;;;;;;;3.97;3.65;;;;;;;;;;10298794;28;20314;-75
2023/06/24 21:10:46;;;;;;;3.65;3.55;;;;;;;;;;10287967;28;20236;-77
2023/06/24 21:15:47;;;;;;;3.90;3.60;;;;;;;;;;10300098;28;20218;-75
2023/06/24 21:20:48;;;;;;;5.30;3.45;;;;;;;;;;10304057;28;20299;-77
2023/06/24 21:25:53;;;;;;;3.22;2.90;;;;;;;;;;10286635;28;20336;-78
2023/06/24 21:30:54;;;;;;;2.90;2.78;;;;;;;;;;10281447;28;21162;-76
2023/06/24 21:35:55;;;;;;;2.95;2.75;;;;;;;;;;10277664;28;20221;-76
2023/06/24 21:40:56;;;;;;;2.78;2.67;;;;;;;;;;10302501;28;20209;-78
2023/06/24 21:45:57;;;;;;;4.00;3.63;;;;;;;;;;10297931;28;20673;-78
2023/06/24 21:50:58;;;;;;;4.50;4.15;;;;;;;;;;10304332;28;20618;-75
2023/06/24 21:55:59;;;;;;;3.22;3.13;;;;;;;;;;10302234;28;20244;-76
2023/06/24 22:01:00;;;;;;;3.30;3.10;;;;;;;;;;10277651;28;20777;-76
2023/06/24 22:06:01;;;;;;;4.28;2.92;;;;;;;;;;10284040;28;20252;-76
2023/06/24 22:11:02;;;;;;;3.58;3.38;;;;;;;;;;10285338;28;20221;-76
2023/06/24 22:16:03;;;;;;;3.40;3.20;;;;;;;;;;10302733;28;20217;-77
2023/06/24 22:21:04;;;;;;;3.55;3.30;;;;;;;;;;10283534;28;20684;-76
2023/06/24 22:26:05;;;;;;;8.32;3.08;;;;;;;;;;10304458;28;21708;-78
2023/06/24 22:31:06;;;;;;;3.40;3.22;;;;;;;;;;10312915;28;20347;-78
2023/06/24 22:36:07;;;;;;;3.55;3.25;;;;;;;;;;10293801;28;20283;-77
2023/06/24 22:41:08;;;;;;;3.70;2.90;;;;;;;;;;10308860;28;20218;-76
2023/06/24 22:46:09;;;;;;;3.92;3.63;;;;;;;;;;10310550;28;20740;-76
2023/06/24 22:51:10;;;;;;;3.00;2.90;;;;;;;;;;10302000;28;20233;-75
2023/06/24 22:56:11;;;;;;;4.68;3.30;;;;;;;;;;10303938;28;20327;-78
2023/06/24 23:01:12;;;;;;;3.58;3.38;;;;;;;;;;10304876;28;20303;-76
2023/06/24 23:06:13;;;;;;;4.53;3.80;;;;;;;;;;10314216;28;20292;-77
2023/06/24 23:11:15;;;;;;;4.88;4.47;;;;;;;;;;10315315;28;20221;-77
2023/06/24 23:16:16;;;;;;;4.72;4.32;;;;;;;;;;10314639;28;20219;-77
2023/06/24 23:21:17;;;;;;;4.55;4.18;;;;;;;;;;10302072;28;20347;-75
2023/06/24 23:26:18;;;;;;;4.25;3.85;;;;;;;;;;10303215;28;20792;-76
2023/06/24 23:31:25;;;;;;;4.10;3.90;;;;;;;;;;10296503;28;20286;-76
2023/06/24 23:36:28;;;;;;;5.00;4.50;;;;;;;;;;10298477;28;20220;-76
2023/06/24 23:41:29;;;;;;;5.30;4.90;;;;;;;;;;10280561;28;21073;-76
2023/06/24 23:46:30;;;;;;;9.20;5.88;;;;;;;;;;10281814;28;20271;-77
2023/06/24 23:51:31;;;;;;;5.55;5.10;;;;;;;;;;10295335;28;20232;-75
2023/06/24 23:56:32;;;;;;;5.22;4.75;;;;;;;;;;10293103;28;20244;-75
